메인 페이지
METAR-TAF:

METAR-TAF

공항 :

홍콩 국제공항

홍콩, 중국

위도: 22-19N, 경도: 113-55E, 고도: 9m

현재 날씨관측

예보는 14분 전, 23:30시(UTC)에 발표되었습니다.
남서10kt
온도 31°C
습도 75%
기압 1010 hPa
시정 10km 이상
고도 1800ft 상공 구름 조금
고도 2800ft 상공 구름 보통

METAR: VHHH 262330Z 23010KT 9999 FEW018 SCT028 31/26 Q1010 NOSIG

시각: 07:44 (23:44 UTC)

예보

예보는 44분 전, 23:00시(UTC)에 발표되었습니다.
예보 대상 시간: 27일 00시부터 28일 06시까지 (UTC)
서남서10kt
시정 10km 이상
고도 2000ft 상공 구름 조금
일시적
27일 20시부터 28일 02시까지 (UTC)
시정: 4500m
소나기

TAF: VHHH 262300Z 2700/2806 24010KT 9999 FEW020 TX35/2706Z TX35/2806Z TN28/2721Z TEMPO 2720/2802 4500 SHRA

4,000개 이상의 공항 관측 자료 및 예보 (METAR 및 TAF 보고).

지도상에서 검색 가능한 기상관측소가 노란 점과 빨간 점으로 표시되어 있습니다.

기상관측소 명을 보려면 표시 위로 마우스를 이동하세요.

날씨 관측과 예보를 보려면 클릭하세요.

지도 변경 : 확대하려면 엑스 표시가 있는 녹색 버튼, 축소하려면 빼기 표시가 있는 녹색 버튼, 다음 페이지의 지도를 보려면 녹색 화살표를 클릭하세요.


METAR-TAF: